PTTBR SBAR-SBJE
Flight info
| Callsign | PTTBR |
|---|---|
| Flight time | 1h 23m |
| Altitude | 43000 |
| Route | VUSTI UZ19 ORIPU/N0481F450 UZ19 ISUGI/N0476F470 UM791 ESDAB |
| Aircraft | C750/M-SBDE3FGHRWXY/S |
Departure
| Time | 2026-05-08 19:55 |
|---|---|
| Airport | Aracaju - Santa Maria Airport (SBAR) |
Arrival
| Time | 2026-05-08 21:18 |
|---|---|
| Airport | Comandante Ariston Pessoa Airport (SBJE) |
| Time | Latitude | Longitude | Altitude | Speed | Heading |
|---|---|---|---|---|---|
| 2026-05-08 19:45 | -10.98640 | -37.07103 | 26 ft | 0 kts | 180° |
| 2026-05-08 19:50 | -10.98642 | -37.07104 | 28 ft | 1 kts | 196° |
| 2026-05-08 19:50 | -10.98643 | -37.07108 | 26 ft | 0 kts | 240° |
| 2026-05-08 19:51 | -10.98643 | -37.07111 | 26 ft | 0 kts | 274° |
| 2026-05-08 19:51 | -10.98626 | -37.07147 | 25 ft | 9 kts | 296° |
| 2026-05-08 19:51 | -10.98598 | -37.07198 | 25 ft | 7 kts | 305° |
| 2026-05-08 19:51 | -10.98557 | -37.07233 | 27 ft | 9 kts | 346° |
| 2026-05-08 19:52 | -10.98490 | -37.07234 | 27 ft | 11 kts | 1° |
| 2026-05-08 19:52 | -10.98409 | -37.07239 | 25 ft | 10 kts | 320° |
| 2026-05-08 19:52 | -10.98397 | -37.07307 | 24 ft | 10 kts | 272° |
| 2026-05-08 19:52 | -10.98394 | -37.07371 | 25 ft | 8 kts | 272° |
| 2026-05-08 19:53 | -10.98392 | -37.07446 | 27 ft | 14 kts | 272° |
| 2026-05-08 19:53 | -10.98387 | -37.07567 | 29 ft | 21 kts | 272° |
| 2026-05-08 19:53 | -10.98381 | -37.07752 | 26 ft | 31 kts | 272° |
| 2026-05-08 19:53 | -10.98371 | -37.08002 | 26 ft | 32 kts | 272° |
| 2026-05-08 19:54 | -10.98360 | -37.08038 | 29 ft | 0 kts | 25° |
| 2026-05-08 19:54 | -10.98361 | -37.08033 | 26 ft | 0 kts | 97° |
| 2026-05-08 19:54 | -10.98368 | -37.07998 | 26 ft | 10 kts | 100° |
| 2026-05-08 19:54 | -10.98373 | -37.07817 | 25 ft | 65 kts | 92° |
| 2026-05-08 19:55 | -10.98405 | -37.07001 | 87 ft | 145 kts | 93° |
| 2026-05-08 19:55 | -10.98442 | -37.05977 | 892 ft | 135 kts | 93° |
| 2026-05-08 19:55 | -10.98448 | -37.05076 | 1835 ft | 125 kts | 83° |
| 2026-05-08 19:55 | -10.97817 | -37.04360 | 2196 ft | 162 kts | 22° |
| 2026-05-08 19:56 | -10.96718 | -37.04104 | 2984 ft | 165 kts | 12° |
| 2026-05-08 19:56 | -10.95923 | -37.04161 | 3314 ft | 185 kts | 347° |
| 2026-05-08 19:56 | -10.94746 | -37.04896 | 3821 ft | 214 kts | 316° |
| 2026-05-08 19:56 | -10.93691 | -37.06079 | 4439 ft | 236 kts | 312° |
| 2026-05-08 19:57 | -10.92551 | -37.07376 | 5060 ft | 256 kts | 312° |
| 2026-05-08 19:57 | -10.91313 | -37.08787 | 5601 ft | 279 kts | 312° |
| 2026-05-08 19:57 | -10.89986 | -37.10301 | 6350 ft | 289 kts | 312° |
| 2026-05-08 19:57 | -10.88650 | -37.11825 | 7406 ft | 290 kts | 313° |
| 2026-05-08 19:58 | -10.87295 | -37.13364 | 8415 ft | 294 kts | 313° |
| 2026-05-08 19:58 | -10.85921 | -37.14930 | 9425 ft | 299 kts | 313° |
| 2026-05-08 19:58 | -10.84532 | -37.16512 | 10338 ft | 304 kts | 313° |
| 2026-05-08 19:58 | -10.83068 | -37.18177 | 10676 ft | 329 kts | 313° |
| 2026-05-08 19:59 | -10.81476 | -37.19985 | 10780 ft | 357 kts | 313° |
| 2026-05-08 19:59 | -10.79786 | -37.21910 | 11296 ft | 367 kts | 313° |
| 2026-05-08 19:59 | -10.78087 | -37.23850 | 12124 ft | 368 kts | 313° |
| 2026-05-08 19:59 | -10.76371 | -37.25800 | 12846 ft | 372 kts | 314° |
| 2026-05-08 20:00 | -10.74638 | -37.27769 | 13563 ft | 375 kts | 313° |
| 2026-05-08 20:00 | -10.72894 | -37.29753 | 14263 ft | 378 kts | 313° |
| 2026-05-08 20:00 | -10.71134 | -37.31754 | 14942 ft | 381 kts | 313° |
| 2026-05-08 20:00 | -10.69360 | -37.33771 | 15606 ft | 384 kts | 313° |
| 2026-05-08 20:01 | -10.67570 | -37.35805 | 16271 ft | 387 kts | 312° |
| 2026-05-08 20:01 | -10.65767 | -37.37855 | 16953 ft | 390 kts | 312° |
| 2026-05-08 20:01 | -10.63953 | -37.39915 | 17633 ft | 393 kts | 312° |
| 2026-05-08 20:01 | -10.62121 | -37.41995 | 18307 ft | 396 kts | 312° |
| 2026-05-08 20:02 | -10.60274 | -37.44092 | 19012 ft | 399 kts | 312° |
| 2026-05-08 20:02 | -10.58422 | -37.46196 | 19763 ft | 400 kts | 312° |
| 2026-05-08 20:02 | -10.56581 | -37.48285 | 20463 ft | 403 kts | 312° |
| 2026-05-08 20:02 | -10.54709 | -37.50409 | 21197 ft | 404 kts | 312° |
| 2026-05-08 20:03 | -10.52827 | -37.52545 | 21886 ft | 407 kts | 312° |
| 2026-05-08 20:03 | -10.50933 | -37.54693 | 22571 ft | 409 kts | 312° |
| 2026-05-08 20:03 | -10.49033 | -37.56848 | 23267 ft | 410 kts | 312° |
| 2026-05-08 20:03 | -10.47122 | -37.59015 | 23952 ft | 412 kts | 312° |
| 2026-05-08 20:04 | -10.45207 | -37.61187 | 24613 ft | 415 kts | 312° |
| 2026-05-08 20:04 | -10.43270 | -37.63382 | 25158 ft | 419 kts | 312° |
| 2026-05-08 20:04 | -10.41314 | -37.65598 | 25729 ft | 423 kts | 311° |
| 2026-05-08 20:04 | -10.39336 | -37.67839 | 26258 ft | 428 kts | 311° |
| 2026-05-08 20:05 | -10.37342 | -37.70099 | 26813 ft | 432 kts | 311° |
| 2026-05-08 20:05 | -10.35324 | -37.72385 | 27320 ft | 437 kts | 311° |
| 2026-05-08 20:05 | -10.33285 | -37.74693 | 27843 ft | 441 kts | 311° |
| 2026-05-08 20:05 | -10.31230 | -37.77019 | 28345 ft | 445 kts | 311° |
| 2026-05-08 20:06 | -10.29152 | -37.79373 | 28819 ft | 449 kts | 310° |
| 2026-05-08 20:06 | -10.27091 | -37.81704 | 29294 ft | 428 kts | 310° |
| 2026-05-08 20:06 | -10.25178 | -37.83861 | 29371 ft | 397 kts | 310° |
| 2026-05-08 20:06 | -10.23373 | -37.85903 | 29375 ft | 385 kts | 310° |
| 2026-05-08 20:07 | -10.19786 | -37.89971 | 29383 ft | 387 kts | 310° |
| 2026-05-08 20:07 | -10.16186 | -37.94034 | 29391 ft | 387 kts | 310° |
| 2026-05-08 20:08 | -10.12586 | -37.98105 | 29395 ft | 387 kts | 310° |
| 2026-05-08 20:08 | -10.08981 | -38.02177 | 29398 ft | 387 kts | 310° |
| 2026-05-08 20:09 | -10.05379 | -38.06244 | 29398 ft | 387 kts | 310° |
| 2026-05-08 20:09 | -10.01800 | -38.10285 | 29399 ft | 388 kts | 310° |
| 2026-05-08 20:10 | -9.98173 | -38.14377 | 29397 ft | 387 kts | 310° |
| 2026-05-08 20:10 | -9.94593 | -38.18417 | 29399 ft | 388 kts | 310° |
| 2026-05-08 20:11 | -9.90985 | -38.22484 | 29396 ft | 388 kts | 310° |
| 2026-05-08 20:11 | -9.87370 | -38.26559 | 29396 ft | 389 kts | 310° |
| 2026-05-08 20:12 | -9.83678 | -38.30721 | 29410 ft | 413 kts | 310° |
| 2026-05-08 20:12 | -9.81718 | -38.32931 | 29430 ft | 430 kts | 310° |
| 2026-05-08 20:12 | -9.79595 | -38.35145 | 29435 ft | 447 kts | 316° |
| 2026-05-08 20:13 | -9.77061 | -38.37065 | 29504 ft | 462 kts | 326° |
| 2026-05-08 20:13 | -9.74208 | -38.38594 | 29997 ft | 467 kts | 334° |
| 2026-05-08 20:13 | -9.71109 | -38.39662 | 30400 ft | 475 kts | 343° |
| 2026-05-08 20:13 | -9.67828 | -38.40212 | 30859 ft | 481 kts | 352° |
| 2026-05-08 20:14 | -9.64481 | -38.40325 | 31456 ft | 480 kts | 356° |
| 2026-05-08 20:14 | -9.61149 | -38.40403 | 32138 ft | 477 kts | 356° |
| 2026-05-08 20:14 | -9.57841 | -38.40496 | 32746 ft | 475 kts | 355° |
| 2026-05-08 20:14 | -9.54538 | -38.40583 | 33362 ft | 473 kts | 355° |
| 2026-05-08 20:15 | -9.51255 | -38.40659 | 33975 ft | 471 kts | 356° |
| 2026-05-08 20:15 | -9.47984 | -38.40737 | 34572 ft | 469 kts | 356° |
| 2026-05-08 20:15 | -9.44726 | -38.40820 | 35162 ft | 467 kts | 355° |
| 2026-05-08 20:15 | -9.41483 | -38.40904 | 35754 ft | 465 kts | 355° |
| 2026-05-08 20:16 | -9.38254 | -38.40985 | 36330 ft | 463 kts | 355° |
| 2026-05-08 20:16 | -9.35036 | -38.41063 | 36866 ft | 462 kts | 355° |
| 2026-05-08 20:16 | -9.31823 | -38.41143 | 37430 ft | 461 kts | 355° |
| 2026-05-08 20:16 | -9.28628 | -38.41223 | 38038 ft | 458 kts | 355° |
| 2026-05-08 20:17 | -9.25453 | -38.41302 | 38645 ft | 455 kts | 355° |
| 2026-05-08 20:17 | -9.22305 | -38.41380 | 39237 ft | 452 kts | 355° |
| 2026-05-08 20:17 | -9.19174 | -38.41457 | 39776 ft | 450 kts | 355° |
| 2026-05-08 20:17 | -9.16042 | -38.41537 | 40208 ft | 450 kts | 355° |
| 2026-05-08 20:18 | -9.12907 | -38.41616 | 40607 ft | 451 kts | 355° |
| 2026-05-08 20:18 | -9.09775 | -38.41693 | 41001 ft | 451 kts | 355° |
| 2026-05-08 20:18 | -9.06637 | -38.41770 | 41406 ft | 451 kts | 355° |
| 2026-05-08 20:18 | -9.03498 | -38.41849 | 41778 ft | 451 kts | 355° |
| 2026-05-08 20:19 | -9.00364 | -38.41927 | 42144 ft | 451 kts | 355° |
| 2026-05-08 20:19 | -8.97222 | -38.42005 | 42504 ft | 451 kts | 354° |
| 2026-05-08 20:19 | -8.94082 | -38.42083 | 42840 ft | 451 kts | 354° |
| 2026-05-08 20:19 | -8.90932 | -38.42162 | 42985 ft | 457 kts | 355° |
| 2026-05-08 20:20 | -8.84470 | -38.42324 | 42993 ft | 472 kts | 355° |
| 2026-05-08 20:20 | -8.77842 | -38.42487 | 42999 ft | 486 kts | 355° |
| 2026-05-08 20:21 | -8.71003 | -38.42657 | 42996 ft | 497 kts | 355° |
| 2026-05-08 20:21 | -8.64058 | -38.42828 | 42995 ft | 500 kts | 355° |
| 2026-05-08 20:22 | -8.57097 | -38.43001 | 43000 ft | 500 kts | 355° |
| 2026-05-08 20:22 | -8.51266 | -38.43145 | 42998 ft | 500 kts | 355° |
| 2026-05-08 20:23 | -8.43178 | -38.43349 | 42996 ft | 500 kts | 355° |
| 2026-05-08 20:23 | -8.36219 | -38.43524 | 42983 ft | 500 kts | 355° |
| 2026-05-08 20:24 | -8.29258 | -38.43699 | 42982 ft | 500 kts | 355° |
| 2026-05-08 20:24 | -8.22296 | -38.43873 | 42983 ft | 500 kts | 355° |
| 2026-05-08 20:25 | -8.15337 | -38.44047 | 42980 ft | 500 kts | 355° |
| 2026-05-08 20:25 | -8.08374 | -38.44220 | 42982 ft | 500 kts | 355° |
| 2026-05-08 20:26 | -8.01414 | -38.44394 | 42985 ft | 500 kts | 355° |
| 2026-05-08 20:26 | -7.94465 | -38.44567 | 42991 ft | 501 kts | 355° |
| 2026-05-08 20:27 | -7.87445 | -38.44736 | 42990 ft | 507 kts | 355° |
| 2026-05-08 20:27 | -7.80369 | -38.44907 | 42992 ft | 510 kts | 355° |
| 2026-05-08 20:28 | -7.73269 | -38.45080 | 42987 ft | 510 kts | 355° |
| 2026-05-08 20:28 | -7.66171 | -38.45251 | 42972 ft | 510 kts | 355° |
| 2026-05-08 20:29 | -7.59069 | -38.45427 | 42972 ft | 510 kts | 355° |
| 2026-05-08 20:29 | -7.51966 | -38.45569 | 42965 ft | 511 kts | 356° |
| 2026-05-08 20:30 | -7.44854 | -38.45697 | 42967 ft | 511 kts | 355° |
| 2026-05-08 20:30 | -7.37750 | -38.45851 | 42975 ft | 511 kts | 355° |
| 2026-05-08 20:31 | -7.30646 | -38.46057 | 42968 ft | 510 kts | 355° |
| 2026-05-08 20:31 | -7.23540 | -38.46238 | 42968 ft | 511 kts | 355° |
| 2026-05-08 20:32 | -7.16484 | -38.46428 | 42965 ft | 511 kts | 355° |
| 2026-05-08 20:32 | -7.09373 | -38.46617 | 42975 ft | 511 kts | 355° |
| 2026-05-08 20:33 | -7.02271 | -38.46800 | 42960 ft | 511 kts | 355° |
| 2026-05-08 20:33 | -6.95167 | -38.46975 | 42961 ft | 511 kts | 355° |
| 2026-05-08 20:34 | -6.88059 | -38.47155 | 42962 ft | 511 kts | 355° |
| 2026-05-08 20:35 | -6.77393 | -38.47422 | 42957 ft | 512 kts | 355° |
| 2026-05-08 20:35 | -6.70283 | -38.47601 | 42959 ft | 511 kts | 356° |
| 2026-05-08 20:36 | -6.63174 | -38.47779 | 42957 ft | 511 kts | 356° |
| 2026-05-08 20:36 | -6.56066 | -38.47957 | 42958 ft | 511 kts | 356° |
| 2026-05-08 20:37 | -6.48958 | -38.48133 | 42955 ft | 511 kts | 356° |
| 2026-05-08 20:37 | -6.41847 | -38.48308 | 42956 ft | 511 kts | 356° |
| 2026-05-08 20:38 | -6.34743 | -38.48483 | 42958 ft | 511 kts | 356° |
| 2026-05-08 20:38 | -6.27681 | -38.48657 | 42955 ft | 511 kts | 356° |
| 2026-05-08 20:39 | -6.20570 | -38.48833 | 42949 ft | 511 kts | 356° |
| 2026-05-08 20:39 | -6.13464 | -38.49007 | 42948 ft | 511 kts | 356° |
| 2026-05-08 20:40 | -6.06356 | -38.49183 | 42945 ft | 511 kts | 356° |
| 2026-05-08 20:40 | -5.99250 | -38.49358 | 42944 ft | 511 kts | 356° |
| 2026-05-08 20:41 | -5.92141 | -38.49532 | 42945 ft | 511 kts | 356° |
| 2026-05-08 20:41 | -5.85031 | -38.49708 | 42942 ft | 511 kts | 356° |
| 2026-05-08 20:42 | -5.77920 | -38.49883 | 42943 ft | 511 kts | 356° |
| 2026-05-08 20:42 | -5.70813 | -38.50057 | 42939 ft | 511 kts | 356° |
| 2026-05-08 20:43 | -5.63701 | -38.50233 | 42938 ft | 511 kts | 356° |
| 2026-05-08 20:43 | -5.56595 | -38.50406 | 42940 ft | 511 kts | 356° |
| 2026-05-08 20:44 | -5.49485 | -38.50577 | 42940 ft | 511 kts | 356° |
| 2026-05-08 20:44 | -5.42374 | -38.50750 | 42929 ft | 511 kts | 356° |
| 2026-05-08 20:45 | -5.36469 | -38.50893 | 42930 ft | 511 kts | 356° |
| 2026-05-08 20:45 | -5.29354 | -38.51065 | 42931 ft | 511 kts | 356° |
| 2026-05-08 20:46 | -5.22275 | -38.51235 | 42924 ft | 501 kts | 356° |
| 2026-05-08 20:46 | -5.15382 | -38.51976 | 42902 ft | 497 kts | 343° |
| 2026-05-08 20:47 | -5.09087 | -38.54677 | 42910 ft | 491 kts | 326° |
| 2026-05-08 20:47 | -5.03976 | -38.59134 | 42911 ft | 485 kts | 309° |
| 2026-05-08 20:48 | -4.99869 | -38.64490 | 42928 ft | 484 kts | 305° |
| 2026-05-08 20:48 | -4.95495 | -38.69659 | 42921 ft | 487 kts | 310° |
| 2026-05-08 20:49 | -4.91129 | -38.74838 | 42923 ft | 486 kts | 307° |
| 2026-05-08 20:49 | -4.86806 | -38.80040 | 42923 ft | 487 kts | 309° |
| 2026-05-08 20:50 | -4.82459 | -38.85172 | 42922 ft | 487 kts | 308° |
| 2026-05-08 20:50 | -4.78107 | -38.90369 | 42922 ft | 486 kts | 309° |
| 2026-05-08 20:51 | -4.73723 | -38.95550 | 42925 ft | 487 kts | 308° |
| 2026-05-08 20:51 | -4.69356 | -39.00744 | 42925 ft | 486 kts | 309° |
| 2026-05-08 20:52 | -4.64986 | -39.05920 | 42924 ft | 487 kts | 308° |
| 2026-05-08 20:52 | -4.60621 | -39.11115 | 42921 ft | 488 kts | 308° |
| 2026-05-08 20:53 | -4.56207 | -39.16268 | 42921 ft | 486 kts | 310° |
| 2026-05-08 20:53 | -4.51734 | -39.21329 | 42551 ft | 476 kts | 309° |
| 2026-05-08 20:53 | -4.49596 | -39.23811 | 41924 ft | 464 kts | 309° |
| 2026-05-08 20:54 | -4.47512 | -39.26220 | 41317 ft | 453 kts | 309° |
| 2026-05-08 20:54 | -4.45458 | -39.28562 | 40721 ft | 442 kts | 310° |
| 2026-05-08 20:54 | -4.43444 | -39.30860 | 40135 ft | 435 kts | 309° |
| 2026-05-08 20:54 | -4.41465 | -39.33136 | 39565 ft | 433 kts | 309° |
| 2026-05-08 20:55 | -4.39480 | -39.35422 | 38984 ft | 436 kts | 309° |
| 2026-05-08 20:55 | -4.37473 | -39.37721 | 38412 ft | 441 kts | 310° |
| 2026-05-08 20:55 | -4.35446 | -39.40040 | 37817 ft | 443 kts | 310° |
| 2026-05-08 20:55 | -4.33422 | -39.42361 | 37227 ft | 443 kts | 310° |
| 2026-05-08 20:56 | -4.31393 | -39.44691 | 36638 ft | 443 kts | 310° |
| 2026-05-08 20:56 | -4.29361 | -39.47020 | 36055 ft | 444 kts | 311° |
| 2026-05-08 20:56 | -4.27325 | -39.49351 | 35455 ft | 447 kts | 311° |
| 2026-05-08 20:56 | -4.25266 | -39.51710 | 34856 ft | 452 kts | 311° |
| 2026-05-08 20:57 | -4.23186 | -39.54092 | 34254 ft | 456 kts | 312° |
| 2026-05-08 20:57 | -4.21090 | -39.56492 | 33643 ft | 460 kts | 312° |
| 2026-05-08 20:57 | -4.19002 | -39.58884 | 33036 ft | 464 kts | 311° |
| 2026-05-08 20:57 | -4.16880 | -39.61315 | 32419 ft | 464 kts | 311° |
| 2026-05-08 20:58 | -4.14748 | -39.63756 | 31801 ft | 467 kts | 311° |
| 2026-05-08 20:58 | -4.12608 | -39.66206 | 31178 ft | 469 kts | 311° |
| 2026-05-08 20:58 | -4.10450 | -39.68673 | 30553 ft | 472 kts | 310° |
| 2026-05-08 20:58 | -4.08272 | -39.71125 | 29925 ft | 468 kts | 310° |
| 2026-05-08 20:59 | -4.06111 | -39.73545 | 29302 ft | 465 kts | 310° |
| 2026-05-08 20:59 | -4.03980 | -39.75955 | 28686 ft | 459 kts | 310° |
| 2026-05-08 20:59 | -4.01875 | -39.78347 | 28079 ft | 456 kts | 311° |
| 2026-05-08 20:59 | -3.99780 | -39.80714 | 27468 ft | 452 kts | 311° |
| 2026-05-08 21:00 | -3.97699 | -39.83057 | 26879 ft | 449 kts | 311° |
| 2026-05-08 21:00 | -3.95636 | -39.85385 | 26282 ft | 444 kts | 311° |
| 2026-05-08 21:00 | -3.93593 | -39.87697 | 25693 ft | 441 kts | 312° |
| 2026-05-08 21:00 | -3.91567 | -39.89986 | 25110 ft | 437 kts | 312° |
| 2026-05-08 21:01 | -3.89557 | -39.92253 | 24531 ft | 434 kts | 313° |
| 2026-05-08 21:01 | -3.87563 | -39.94503 | 23947 ft | 431 kts | 313° |
| 2026-05-08 21:01 | -3.85586 | -39.96737 | 23388 ft | 427 kts | 313° |
| 2026-05-08 21:01 | -3.83620 | -39.98957 | 22821 ft | 424 kts | 313° |
| 2026-05-08 21:02 | -3.81670 | -40.01157 | 22260 ft | 421 kts | 312° |
| 2026-05-08 21:02 | -3.79734 | -40.03342 | 21700 ft | 418 kts | 312° |
| 2026-05-08 21:02 | -3.77810 | -40.05514 | 21149 ft | 416 kts | 312° |
| 2026-05-08 21:02 | -3.75897 | -40.07672 | 20604 ft | 413 kts | 312° |
| 2026-05-08 21:03 | -3.73959 | -40.09780 | 20033 ft | 410 kts | 316° |
| 2026-05-08 21:03 | -3.71701 | -40.11501 | 19516 ft | 409 kts | 325° |
| 2026-05-08 21:03 | -3.69377 | -40.13118 | 18971 ft | 405 kts | 325° |
| 2026-05-08 21:03 | -3.67081 | -40.14741 | 18434 ft | 402 kts | 324° |
| 2026-05-08 21:04 | -3.64828 | -40.16371 | 17903 ft | 397 kts | 323° |
| 2026-05-08 21:04 | -3.62591 | -40.17983 | 17383 ft | 395 kts | 324° |
| 2026-05-08 21:04 | -3.60387 | -40.19547 | 16870 ft | 394 kts | 324° |
| 2026-05-08 21:04 | -3.58126 | -40.21151 | 16351 ft | 392 kts | 324° |
| 2026-05-08 21:05 | -3.55910 | -40.22738 | 15836 ft | 392 kts | 324° |
| 2026-05-08 21:05 | -3.53730 | -40.24300 | 15329 ft | 389 kts | 324° |
| 2026-05-08 21:05 | -3.51529 | -40.25871 | 14817 ft | 388 kts | 324° |
| 2026-05-08 21:05 | -3.49341 | -40.27430 | 14310 ft | 385 kts | 325° |
| 2026-05-08 21:06 | -3.47157 | -40.28988 | 13792 ft | 383 kts | 325° |
| 2026-05-08 21:06 | -3.44988 | -40.30539 | 13294 ft | 382 kts | 325° |
| 2026-05-08 21:06 | -3.42833 | -40.32078 | 12794 ft | 380 kts | 325° |
| 2026-05-08 21:06 | -3.40683 | -40.33611 | 12293 ft | 378 kts | 325° |
| 2026-05-08 21:07 | -3.38550 | -40.35133 | 11798 ft | 376 kts | 325° |
| 2026-05-08 21:07 | -3.36428 | -40.36648 | 11303 ft | 373 kts | 326° |
| 2026-05-08 21:07 | -3.34382 | -40.38109 | 10844 ft | 350 kts | 326° |
| 2026-05-08 21:07 | -3.32467 | -40.39478 | 10438 ft | 328 kts | 326° |
| 2026-05-08 21:08 | -3.30653 | -40.40772 | 10063 ft | 314 kts | 326° |
| 2026-05-08 21:08 | -3.28889 | -40.42028 | 9681 ft | 309 kts | 326° |
| 2026-05-08 21:08 | -3.27144 | -40.43272 | 9283 ft | 307 kts | 326° |
| 2026-05-08 21:08 | -3.25416 | -40.44503 | 8883 ft | 304 kts | 326° |
| 2026-05-08 21:09 | -3.23698 | -40.45731 | 8489 ft | 302 kts | 326° |
| 2026-05-08 21:09 | -3.21994 | -40.46948 | 8092 ft | 300 kts | 327° |
| 2026-05-08 21:09 | -3.20298 | -40.48157 | 7700 ft | 298 kts | 326° |
| 2026-05-08 21:09 | -3.18618 | -40.49357 | 7308 ft | 296 kts | 326° |
| 2026-05-08 21:10 | -3.16958 | -40.50542 | 6923 ft | 288 kts | 326° |
| 2026-05-08 21:10 | -3.15361 | -40.51682 | 6562 ft | 276 kts | 327° |
| 2026-05-08 21:10 | -3.13828 | -40.52776 | 6247 ft | 265 kts | 327° |
| 2026-05-08 21:10 | -3.12348 | -40.53830 | 5946 ft | 259 kts | 327° |
| 2026-05-08 21:11 | -3.10904 | -40.54858 | 5623 ft | 255 kts | 327° |
| 2026-05-08 21:11 | -3.09478 | -40.55877 | 5298 ft | 248 kts | 327° |
| 2026-05-08 21:11 | -3.08081 | -40.56873 | 4978 ft | 245 kts | 327° |
| 2026-05-08 21:11 | -3.06694 | -40.57860 | 4661 ft | 244 kts | 327° |
| 2026-05-08 21:12 | -3.05269 | -40.58738 | 4295 ft | 239 kts | 341° |
| 2026-05-08 21:12 | -3.03663 | -40.58867 | 3949 ft | 230 kts | 12° |
| 2026-05-08 21:12 | -3.02253 | -40.58246 | 3737 ft | 216 kts | 39° |
| 2026-05-08 21:12 | -3.01324 | -40.57116 | 3562 ft | 208 kts | 63° |
| 2026-05-08 21:13 | -3.00684 | -40.55828 | 3515 ft | 204 kts | 64° |
| 2026-05-08 21:13 | -3.00044 | -40.54559 | 3511 ft | 205 kts | 64° |
| 2026-05-08 21:13 | -2.99402 | -40.53280 | 3511 ft | 206 kts | 64° |
| 2026-05-08 21:13 | -2.98764 | -40.52000 | 3508 ft | 206 kts | 64° |
| 2026-05-08 21:14 | -2.98126 | -40.50721 | 3339 ft | 208 kts | 64° |
| 2026-05-08 21:14 | -2.97468 | -40.49404 | 2811 ft | 214 kts | 64° |
| 2026-05-08 21:14 | -2.96815 | -40.48096 | 2279 ft | 199 kts | 63° |
| 2026-05-08 21:14 | -2.96253 | -40.46971 | 1961 ft | 162 kts | 63° |
| 2026-05-08 21:15 | -2.95802 | -40.46066 | 1857 ft | 133 kts | 63° |
| 2026-05-08 21:15 | -2.95396 | -40.45254 | 1788 ft | 129 kts | 63° |
| 2026-05-08 21:15 | -2.94993 | -40.44446 | 1737 ft | 130 kts | 63° |
| 2026-05-08 21:15 | -2.94585 | -40.43631 | 1622 ft | 133 kts | 63° |
| 2026-05-08 21:16 | -2.94171 | -40.42804 | 1441 ft | 132 kts | 63° |
| 2026-05-08 21:16 | -2.93764 | -40.41990 | 1269 ft | 132 kts | 63° |
| 2026-05-08 21:16 | -2.93347 | -40.41159 | 1092 ft | 132 kts | 63° |
| 2026-05-08 21:16 | -2.92938 | -40.40342 | 916 ft | 131 kts | 63° |
| 2026-05-08 21:17 | -2.92531 | -40.39530 | 743 ft | 130 kts | 63° |
| 2026-05-08 21:17 | -2.92126 | -40.38720 | 567 ft | 130 kts | 63° |
| 2026-05-08 21:17 | -2.91724 | -40.37916 | 395 ft | 129 kts | 63° |
| 2026-05-08 21:17 | -2.91324 | -40.37118 | 220 ft | 128 kts | 63° |
| 2026-05-08 21:18 | -2.90937 | -40.36340 | 102 ft | 122 kts | 63° |
| 2026-05-08 21:18 | -2.90625 | -40.35712 | 92 ft | 70 kts | 63° |
| 2026-05-08 21:18 | -2.90469 | -40.35398 | 97 ft | 44 kts | 64° |
| 2026-05-08 21:18 | -2.90376 | -40.35161 | 99 ft | 22 kts | 90° |
| 2026-05-08 21:19 | -2.90375 | -40.35009 | 96 ft | 22 kts | 93° |
| 2026-05-08 21:19 | -2.90441 | -40.34930 | 95 ft | 15 kts | 155° |
| 2026-05-08 21:19 | -2.90498 | -40.34915 | 95 ft | 6 kts | 149° |
| 2026-05-08 21:19 | -2.90520 | -40.34892 | 95 ft | 4 kts | 88° |
| 2026-05-08 21:20 | -2.90517 | -40.34886 | 95 ft | 0 kts | 65° |